Time;durP1;ratioP1;P1;durP2;ratioP2;P2;SDS_P1;SDS_P2;PMS_P1;PMS_P2;Temp;Humidity;BMP_temperature;BMP_pressure;BME280_temperature;BME280_humidity;BME280_pressure;Samples;Min_cycle;Max_cycle;Signal;HPM_P1;HPM_P2
2023/01/22 00:00:14;;;;;;;11.77;6.03;;;-0.50;99.90;;;;;;4985733;28;20104;-36
2023/01/22 00:02:40;;;;;;;14.00;5.85;;;-0.50;99.90;;;;;;4986890;28;20085;-35
2023/01/22 00:05:06;;;;;;;13.48;6.00;;;-0.50;99.90;;;;;;4984408;28;20034;-35
2023/01/22 00:07:32;;;;;;;12.50;5.55;;;-0.50;99.90;;;;;;4992421;28;21242;-36
2023/01/22 00:10:01;;;;;;;9.30;4.40;;;-0.50;99.90;;;;;;4993112;28;20085;-35
2023/01/22 00:12:27;;;;;;;10.77;5.22;;;-0.60;99.90;;;;;;4990308;28;20529;-35
2023/01/22 00:14:52;;;;;;;11.13;4.40;;;-0.60;99.90;;;;;;4990108;28;20050;-35
2023/01/22 00:17:18;;;;;;;9.02;4.38;;;-0.70;99.90;;;;;;4971282;28;20415;-36
2023/01/22 00:19:44;;;;;;;10.85;4.88;;;-0.70;99.90;;;;;;4991241;28;20066;-35
2023/01/22 00:22:11;;;;;;;9.63;3.90;;;-0.80;99.90;;;;;;4990394;28;20587;-35
2023/01/22 00:24:38;;;;;;;10.00;4.93;;;-0.80;99.90;;;;;;4987868;28;20539;-35
2023/01/22 00:27:04;;;;;;;9.07;4.65;;;-0.90;99.90;;;;;;4988250;28;20050;-35
2023/01/22 00:29:30;;;;;;;8.88;3.92;;;-0.90;99.90;;;;;;4989318;28;20042;-35
2023/01/22 00:31:56;;;;;;;12.60;5.18;;;-0.90;99.90;;;;;;4991382;28;20033;-36
2023/01/22 00:34:21;;;;;;;8.60;4.18;;;-1.00;99.90;;;;;;4994248;28;20042;-35
2023/01/22 00:36:47;;;;;;;10.27;4.35;;;-1.00;99.90;;;;;;4987222;28;20061;-36
2023/01/22 00:39:13;;;;;;;7.85;4.15;;;-1.00;99.90;;;;;;4992227;28;20074;-35
2023/01/22 00:41:40;;;;;;;8.57;4.28;;;-1.10;99.90;;;;;;4990394;28;20042;-36
2023/01/22 00:44:05;;;;;;;9.57;5.00;;;-1.10;99.90;;;;;;4991500;28;20042;-35
2023/01/22 00:46:31;;;;;;;10.35;4.82;;;-1.10;99.90;;;;;;4991446;28;20496;-35
2023/01/22 00:48:57;;;;;;;9.85;5.10;;;-1.10;99.90;;;;;;4991892;28;20046;-35
2023/01/22 00:51:23;;;;;;;8.98;4.35;;;-1.10;99.90;;;;;;4990623;28;20049;-35
2023/01/22 00:53:48;;;;;;;10.30;5.20;;;-1.20;99.90;;;;;;4992278;28;20060;-35
2023/01/22 00:56:14;;;;;;;13.63;5.20;;;-1.20;99.90;;;;;;4990515;28;20495;-36
2023/01/22 00:58:40;;;;;;;10.27;4.60;;;-1.20;99.90;;;;;;4988094;28;20389;-36
2023/01/22 01:01:07;;;;;;;10.27;4.95;;;-1.20;99.90;;;;;;4988329;28;20038;-36
2023/01/22 01:03:34;;;;;;;14.90;4.63;;;-1.20;99.90;;;;;;4991071;28;20133;-36
2023/01/22 01:06:12;;;;;;;9.48;4.70;;;-1.20;99.90;;;;;;4988660;28;20038;-35
2023/01/22 01:08:40;;;;;;;8.23;3.85;;;-1.20;99.90;;;;;;4995056;28;20043;-37
2023/01/22 01:11:10;;;;;;;9.57;4.53;;;-1.30;99.90;;;;;;4992165;28;20396;-35
2023/01/22 01:13:38;;;;;;;10.88;4.78;;;-1.30;99.90;;;;;;4989419;28;20093;-36
2023/01/22 01:16:12;;;;;;;8.43;4.20;;;-1.30;99.90;;;;;;4991306;28;20093;-37
2023/01/22 01:18:37;;;;;;;9.93;4.07;;;-1.30;99.90;;;;;;4991002;28;20050;-37
2023/01/22 01:21:06;;;;;;;11.18;5.40;;;-1.30;99.90;;;;;;4990927;28;20046;-35
2023/01/22 01:23:32;;;;;;;8.93;4.28;;;-1.30;99.90;;;;;;4972283;28;20518;-35
2023/01/22 01:25:58;;;;;;;9.98;5.07;;;-1.30;99.90;;;;;;4990961;28;20078;-35
2023/01/22 01:28:24;;;;;;;10.00;4.50;;;-1.30;99.90;;;;;;4991746;28;20088;-36
2023/01/22 01:30:50;;;;;;;7.75;3.83;;;-1.30;99.90;;;;;;4990850;28;20491;-36
2023/01/22 01:33:16;;;;;;;14.95;5.80;;;-1.30;99.90;;;;;;4968236;28;20124;-38
2023/01/22 01:35:41;;;;;;;11.82;4.55;;;-1.20;99.90;;;;;;4988212;28;20043;-35
2023/01/22 01:38:07;;;;;;;12.23;5.15;;;-1.20;99.90;;;;;;4984745;28;20112;-36
2023/01/22 01:40:34;;;;;;;12.13;4.93;;;-1.10;99.90;;;;;;4987066;28;20523;-37
2023/01/22 01:43:01;;;;;;;14.20;4.85;;;-1.10;99.90;;;;;;4986441;28;20050;-35
2023/01/22 01:45:32;;;;;;;10.52;4.47;;;-1.10;99.90;;;;;;4988589;28;20053;-35
2023/01/22 01:48:16;;;;;;;10.30;4.45;;;-1.00;99.90;;;;;;4986775;28;20456;-35
2023/01/22 01:50:50;;;;;;;13.50;4.82;;;-1.00;99.90;;;;;;4985937;28;20099;-36
2023/01/22 01:53:16;;;;;;;15.13;5.03;;;-1.00;99.90;;;;;;4986397;28;20069;-35
2023/01/22 01:55:41;;;;;;;12.00;5.05;;;-1.00;99.90;;;;;;4986602;28;20480;-36
2023/01/22 01:58:20;;;;;;;11.02;4.85;;;-1.00;99.90;;;;;;4983891;28;20054;-37
2023/01/22 02:00:49;;;;;;;11.23;4.22;;;-1.00;99.90;;;;;;4987258;28;20035;-35
2023/01/22 02:03:15;;;;;;;15.52;5.85;;;-0.90;99.90;;;;;;4965124;28;20129;-36
2023/01/22 02:05:41;;;;;;;12.43;5.63;;;-0.90;99.90;;;;;;4986145;28;20131;-36
2023/01/22 02:08:08;;;;;;;15.48;5.55;;;-0.90;99.90;;;;;;4986393;28;20030;-35
2023/01/22 02:10:34;;;;;;;12.85;4.88;;;-0.90;99.90;;;;;;4973442;28;20117;-35
2023/01/22 02:13:06;;;;;;;14.40;5.85;;;-0.90;99.90;;;;;;4987760;28;20074;-38
2023/01/22 02:15:32;;;;;;;11.98;5.20;;;-0.90;99.90;;;;;;4997435;28;20084;-36
2023/01/22 02:17:58;;;;;;;12.82;5.47;;;-0.90;99.90;;;;;;4992870;28;20123;-36
2023/01/22 02:20:23;;;;;;;14.68;5.70;;;-1.00;99.90;;;;;;4972917;28;20034;-36
2023/01/22 02:22:49;;;;;;;13.38;5.70;;;-1.00;99.90;;;;;;4984715;28;20030;-36
2023/01/22 02:25:16;;;;;;;15.27;5.82;;;-0.90;99.90;;;;;;4987366;28;20531;-36
2023/01/22 02:27:42;;;;;;;13.88;4.78;;;-1.00;99.90;;;;;;4971827;28;20046;-35
2023/01/22 02:30:08;;;;;;;13.13;5.63;;;-1.00;99.90;;;;;;4987514;28;20049;-35
2023/01/22 02:32:33;;;;;;;12.18;5.25;;;-1.00;99.90;;;;;;4983218;28;20504;-36
2023/01/22 02:34:59;;;;;;;12.18;5.53;;;-1.00;99.90;;;;;;4987490;28;20057;-36
2023/01/22 02:37:25;;;;;;;10.35;4.88;;;-1.00;99.90;;;;;;4988304;28;20047;-35
2023/01/22 02:39:51;;;;;;;15.63;5.85;;;-1.10;99.90;;;;;;4987422;28;20030;-35
2023/01/22 02:42:16;;;;;;;14.40;5.65;;;-1.10;99.90;;;;;;4989242;28;20034;-35
2023/01/22 02:44:42;;;;;;;16.45;6.30;;;-1.10;99.90;;;;;;4988850;28;20038;-36
2023/01/22 02:47:08;;;;;;;13.57;5.55;;;-1.10;99.90;;;;;;4990072;28;20038;-36
2023/01/22 02:49:34;;;;;;;11.85;5.70;;;-1.10;99.90;;;;;;4988092;28;20069;-42
2023/01/22 02:51:59;;;;;;;15.57;5.50;;;-1.10;99.90;;;;;;4987872;28;20085;-36
2023/01/22 02:54:25;;;;;;;17.10;5.60;;;-1.10;99.90;;;;;;4986782;28;20042;-36
2023/01/22 02:56:51;;;;;;;10.50;4.72;;;-1.10;99.90;;;;;;4987471;28;20077;-35
2023/01/22 02:59:16;;;;;;;15.75;6.32;;;-1.10;99.90;;;;;;4984061;28;20037;-35
2023/01/22 03:01:42;;;;;;;13.20;4.75;;;-1.10;99.90;;;;;;4987593;28;20038;-36
2023/01/22 03:04:11;;;;;;;12.80;5.10;;;-1.10;99.90;;;;;;4990691;28;20038;-35
2023/01/22 03:06:39;;;;;;;12.40;4.82;;;-1.10;99.90;;;;;;4986667;28;20046;-37
2023/01/22 03:09:05;;;;;;;13.30;5.03;;;-1.20;99.90;;;;;;4986567;28;20414;-36
2023/01/22 03:11:34;;;;;;;12.93;5.28;;;-1.20;99.90;;;;;;4987493;28;20065;-35
2023/01/22 03:22:14;;;;;;;11.80;5.90;;;-1.00;99.90;;;;;;4990813;28;20045;-36
2023/01/22 03:24:41;;;;;;;14.25;5.20;;;-1.00;99.90;;;;;;4997902;28;20574;-36
2023/01/22 03:27:07;;;;;;;14.52;5.80;;;-0.90;99.90;;;;;;4987379;28;20073;-35
2023/01/22 03:29:37;;;;;;;13.75;5.75;;;-0.80;99.90;;;;;;4988094;28;20039;-36
2023/01/22 03:32:04;;;;;;;12.88;5.57;;;-0.80;99.90;;;;;;4987293;28;20092;-35
2023/01/22 03:34:30;;;;;;;13.10;5.50;;;-0.70;99.90;;;;;;4971749;28;20964;-35
2023/01/22 03:36:55;;;;;;;11.88;5.38;;;-0.70;99.90;;;;;;4988297;28;20088;-35
2023/01/22 03:39:22;;;;;;;12.88;5.65;;;-0.60;99.90;;;;;;4987946;28;20492;-35
2023/01/22 03:41:48;;;;;;;14.50;5.72;;;-0.60;99.90;;;;;;4986452;28;20048;-35
2023/01/22 03:44:14;;;;;;;15.15;5.93;;;-0.60;99.90;;;;;;4986125;28;20121;-35
2023/01/22 03:46:39;;;;;;;15.65;6.25;;;-0.50;99.90;;;;;;4987546;28;20518;-35
2023/01/22 03:49:06;;;;;;;14.90;5.78;;;-0.50;99.90;;;;;;4987390;28;20037;-37
2023/01/22 03:51:32;;;;;;;11.02;4.68;;;-0.50;99.90;;;;;;4966331;28;20038;-35
2023/01/22 03:53:58;;;;;;;13.05;5.22;;;-0.40;99.90;;;;;;4987622;28;20046;-36
2023/01/22 03:56:25;;;;;;;11.77;5.22;;;-0.40;99.90;;;;;;4988811;28;20120;-34
2023/01/22 03:58:51;;;;;;;10.85;5.20;;;-0.40;99.90;;;;;;4985843;28;20398;-36
2023/01/22 04:01:22;;;;;;;13.70;4.80;;;-0.40;99.90;;;;;;4971714;28;20042;-35
2023/01/22 04:03:48;;;;;;;11.85;4.93;;;-0.30;99.90;;;;;;4985241;28;20038;-35
2023/01/22 04:06:15;;;;;;;12.70;5.38;;;-0.30;99.90;;;;;;4986883;28;20527;-35
2023/01/22 04:08:43;;;;;;;12.23;5.07;;;-0.30;99.90;;;;;;4988732;28;20074;-35
2023/01/22 04:11:10;;;;;;;9.20;4.28;;;-0.20;99.90;;;;;;4986900;28;20507;-35
2023/01/22 04:13:37;;;;;;;10.75;4.65;;;-0.20;99.90;;;;;;4990248;28;20041;-35
2023/01/22 04:16:04;;;;;;;12.15;4.85;;;-0.20;99.90;;;;;;4970028;28;20054;-35
2023/01/22 04:18:30;;;;;;;11.68;4.53;;;-0.20;99.90;;;;;;4988452;28;20056;-35
2023/01/22 04:20:56;;;;;;;9.45;4.75;;;-0.20;99.90;;;;;;4984867;28;20495;-35
2023/01/22 04:23:23;;;;;;;12.18;4.60;;;-0.10;99.90;;;;;;4986511;28;20455;-40
2023/01/22 04:25:49;;;;;;;10.07;3.95;;;-0.10;99.90;;;;;;4985599;28;20767;-35
2023/01/22 04:28:16;;;;;;;10.15;4.45;;;-0.10;99.90;;;;;;4986751;28;20042;-35
2023/01/22 04:30:43;;;;;;;8.95;4.32;;;-0.10;99.90;;;;;;4995205;28;20039;-35
2023/01/22 04:33:10;;;;;;;11.98;4.63;;;0.00;99.90;;;;;;4986431;28;20046;-35
2023/01/22 04:35:36;;;;;;;11.65;4.30;;;0.00;99.90;;;;;;4986906;28;20121;-34
2023/01/22 04:38:04;;;;;;;10.90;4.65;;;0.00;99.90;;;;;;4992022;28;20050;-35
2023/01/22 04:40:30;;;;;;;8.82;3.55;;;0.10;99.90;;;;;;4985426;28;20649;-35
2023/01/22 04:43:03;;;;;;;9.45;4.00;;;0.10;99.90;;;;;;4987884;28;20072;-35
2023/01/22 04:45:29;;;;;;;8.23;3.28;;;0.10;99.90;;;;;;4984116;28;20074;-35
2023/01/22 04:47:55;;;;;;;10.35;3.58;;;0.10;99.90;;;;;;4989737;28;20042;-35
2023/01/22 04:50:23;;;;;;;8.68;3.60;;;0.10;99.90;;;;;;4988576;28;20506;-36
2023/01/22 04:52:50;;;;;;;7.35;3.47;;;0.20;99.90;;;;;;4991630;28;20121;-35
2023/01/22 04:55:16;;;;;;;8.57;3.78;;;0.20;99.90;;;;;;4987430;28;20044;-35
2023/01/22 04:57:42;;;;;;;8.15;3.42;;;0.20;99.90;;;;;;4992821;28;20381;-35
2023/01/22 05:00:09;;;;;;;9.27;3.47;;;0.20;99.90;;;;;;4990156;28;20068;-35
2023/01/22 05:02:36;;;;;;;8.60;3.67;;;0.20;99.90;;;;;;4990573;28;20085;-36
2023/01/22 05:05:01;;;;;;;8.68;3.50;;;0.20;99.90;;;;;;4991146;28;20100;-36
2023/01/22 05:07:27;;;;;;;6.18;2.60;;;0.30;99.90;;;;;;4992332;28;20499;-35
2023/01/22 05:09:53;;;;;;;6.88;3.35;;;0.30;99.90;;;;;;4984010;28;20038;-36
2023/01/22 05:12:18;;;;;;;6.30;2.92;;;0.30;99.90;;;;;;4993104;28;20076;-35
2023/01/22 05:14:44;;;;;;;7.38;3.25;;;0.30;99.90;;;;;;4988675;28;20042;-36
2023/01/22 05:17:10;;;;;;;7.95;3.28;;;0.30;99.90;;;;;;4994638;28;20041;-35
2023/01/22 05:19:36;;;;;;;7.57;3.15;;;0.30;99.90;;;;;;4992170;28;20034;-35
2023/01/22 05:22:03;;;;;;;6.50;3.17;;;0.30;99.90;;;;;;4974185;28;20039;-35
2023/01/22 05:24:29;;;;;;;8.25;2.95;;;0.30;99.90;;;;;;4986612;28;20038;-35
2023/01/22 05:26:54;;;;;;;7.65;3.63;;;0.30;99.90;;;;;;4990526;28;20065;-34
2023/01/22 05:29:24;;;;;;;8.05;3.70;;;0.30;99.90;;;;;;4990700;28;20042;-37
2023/01/22 05:31:54;;;;;;;7.90;3.17;;;0.30;99.90;;;;;;4989850;28;20143;-37
2023/01/22 05:34:20;;;;;;;7.38;2.97;;;0.30;99.90;;;;;;4969574;28;20554;-35
2023/01/22 05:36:46;;;;;;;6.65;3.38;;;0.30;99.90;;;;;;4989037;28;20062;-38
2023/01/22 05:39:13;;;;;;;8.52;3.78;;;0.40;99.90;;;;;;4986205;28;20611;-35
2023/01/22 05:41:39;;;;;;;7.75;3.03;;;0.40;99.90;;;;;;4986678;28;20038;-39
2023/01/22 05:44:05;;;;;;;5.68;2.80;;;0.40;99.90;;;;;;4988328;28;20052;-34
2023/01/22 05:46:31;;;;;;;6.75;2.53;;;0.40;99.90;;;;;;4996465;28;20049;-35
2023/01/22 05:48:58;;;;;;;11.85;3.45;;;0.40;99.90;;;;;;4989359;28;20036;-36
2023/01/22 05:51:24;;;;;;;5.30;2.38;;;0.40;99.90;;;;;;4990508;28;20038;-36
2023/01/22 05:53:50;;;;;;;8.10;3.20;;;0.40;99.90;;;;;;4987933;28;20500;-35
2023/01/22 05:56:16;;;;;;;6.30;2.90;;;0.40;99.90;;;;;;4969721;28;20045;-36
2023/01/22 05:58:42;;;;;;;8.82;2.60;;;0.40;99.90;;;;;;4986844;28;20036;-35
2023/01/22 06:01:08;;;;;;;9.30;2.78;;;0.40;99.90;;;;;;4988444;28;20409;-35
2023/01/22 06:03:34;;;;;;;7.57;2.88;;;0.40;99.90;;;;;;4988453;28;20042;-35
2023/01/22 06:06:01;;;;;;;6.22;2.67;;;0.50;99.90;;;;;;4989373;28;20124;-35
2023/01/22 06:08:27;;;;;;;7.78;2.58;;;0.50;99.90;;;;;;4993744;28;20045;-35
2023/01/22 06:11:04;;;;;;;4.95;2.25;;;0.50;99.90;;;;;;4983926;28;20056;-35
2023/01/22 06:13:31;;;;;;;5.78;2.50;;;0.50;99.90;;;;;;4986441;28;20050;-37
2023/01/22 06:15:57;;;;;;;5.85;2.90;;;0.50;99.90;;;;;;4989427;28;20046;-35
2023/01/22 06:18:24;;;;;;;8.23;2.88;;;0.50;99.90;;;;;;4989515;28;20128;-35
2023/01/22 06:20:50;;;;;;;6.28;2.05;;;0.50;99.90;;;;;;4989867;28;20074;-36
2023/01/22 06:23:16;;;;;;;5.05;2.22;;;0.50;99.90;;;;;;4987503;28;20053;-35
2023/01/22 06:25:42;;;;;;;5.95;3.05;;;0.50;99.90;;;;;;4990135;28;20145;-36
2023/01/22 06:28:09;;;;;;;5.68;2.33;;;0.50;99.90;;;;;;4988098;28;20125;-35
2023/01/22 06:30:35;;;;;;;6.95;2.90;;;0.50;99.90;;;;;;4985574;28;20070;-35
2023/01/22 06:33:02;;;;;;;6.05;2.88;;;0.50;99.90;;;;;;4988126;28;20042;-35
2023/01/22 06:35:27;;;;;;;5.93;2.65;;;0.50;99.90;;;;;;4989310;28;20440;-35
2023/01/22 06:37:53;;;;;;;10.00;3.42;;;0.50;99.90;;;;;;4985401;28;20058;-35
2023/01/22 06:40:19;;;;;;;5.57;2.70;;;0.50;99.90;;;;;;4985810;28;20042;-37
2023/01/22 06:42:44;;;;;;;5.43;2.88;;;0.50;99.90;;;;;;4983067;28;20041;-35
2023/01/22 06:45:10;;;;;;;5.97;2.90;;;0.50;99.90;;;;;;4986124;28;20030;-35
2023/01/22 06:47:36;;;;;;;5.68;2.67;;;0.50;99.90;;;;;;4987775;28;20049;-36
2023/01/22 06:50:03;;;;;;;6.45;2.83;;;0.50;99.90;;;;;;4986248;28;20033;-35
2023/01/22 06:52:29;;;;;;;6.25;2.95;;;0.50;99.90;;;;;;4989245;28;20472;-35
2023/01/22 06:54:54;;;;;;;6.10;2.83;;;0.50;99.90;;;;;;4987216;28;20042;-35
2023/01/22 06:57:20;;;;;;;4.85;2.30;;;0.50;99.90;;;;;;4988730;28;20058;-36
2023/01/22 06:59:46;;;;;;;6.63;2.95;;;0.50;99.90;;;;;;4972750;28;20629;-35
2023/01/22 07:02:20;;;;;;;4.95;2.45;;;0.50;99.90;;;;;;4985344;28;20118;-40
2023/01/22 07:04:46;;;;;;;7.50;3.05;;;0.50;99.90;;;;;;4986342;28;20066;-35
2023/01/22 07:07:12;;;;;;;6.97;3.28;;;0.50;99.90;;;;;;4986005;28;20132;-36
2023/01/22 07:09:38;;;;;;;7.20;3.47;;;0.50;99.90;;;;;;4987489;28;20050;-34
2023/01/22 07:12:04;;;;;;;8.30;2.55;;;0.50;99.90;;;;;;4987721;28;20038;-35
2023/01/22 07:14:29;;;;;;;9.35;2.97;;;0.50;99.90;;;;;;4987172;28;20135;-35
2023/01/22 07:16:55;;;;;;;6.95;2.85;;;0.50;99.90;;;;;;4988608;28;20045;-36
2023/01/22 07:19:22;;;;;;;6.38;3.00;;;0.50;99.90;;;;;;4989134;28;20038;-35
2023/01/22 07:21:47;;;;;;;6.75;2.90;;;0.50;99.90;;;;;;4989333;28;20500;-37
2023/01/22 07:24:13;;;;;;;5.20;2.72;;;0.50;99.90;;;;;;4989292;28;20096;-35
2023/01/22 07:26:39;;;;;;;6.30;2.50;;;0.50;99.90;;;;;;4992513;28;20082;-35
2023/01/22 07:29:05;;;;;;;6.10;2.97;;;0.50;99.90;;;;;;4984059;28;20088;-37
2023/01/22 07:31:31;;;;;;;6.38;2.50;;;0.50;99.90;;;;;;4987005;28;20109;-36
2023/01/22 07:33:57;;;;;;;5.70;2.50;;;0.40;99.90;;;;;;4991474;28;20633;-35
2023/01/22 07:36:23;;;;;;;7.53;3.70;;;0.40;99.90;;;;;;4988607;28;20051;-35
2023/01/22 07:38:48;;;;;;;8.77;2.88;;;0.40;99.90;;;;;;4986534;28;20087;-35
2023/01/22 07:41:14;;;;;;;8.23;2.80;;;0.40;99.90;;;;;;4985846;28;20042;-36
2023/01/22 07:43:40;;;;;;;6.25;2.53;;;0.40;99.90;;;;;;4988314;28;20034;-35
2023/01/22 07:46:07;;;;;;;8.23;3.25;;;0.40;99.90;;;;;;4986574;28;20607;-35
2023/01/22 07:48:33;;;;;;;7.20;3.22;;;0.40;99.90;;;;;;4986357;28;20042;-34
2023/01/22 07:51:05;;;;;;;6.32;3.35;;;0.40;99.90;;;;;;4989689;28;20073;-34
2023/01/22 07:53:31;;;;;;;6.70;2.77;;;0.40;99.90;;;;;;4971050;28;20042;-35
2023/01/22 07:55:57;;;;;;;7.88;3.92;;;0.40;99.90;;;;;;4988411;28;20324;-35
2023/01/22 07:58:23;;;;;;;8.02;3.30;;;0.40;99.90;;;;;;4986384;28;20057;-35
2023/01/22 08:00:49;;;;;;;7.03;3.25;;;0.40;99.90;;;;;;4983706;28;20034;-36
2023/01/22 08:03:15;;;;;;;7.38;3.33;;;0.40;99.90;;;;;;4984659;28;20045;-34
2023/01/22 08:05:42;;;;;;;7.88;3.30;;;0.30;99.90;;;;;;4967752;28;20038;-34
2023/01/22 08:08:21;;;;;;;8.07;3.30;;;0.30;99.90;;;;;;4988019;28;20086;-35
2023/01/22 08:10:47;;;;;;;7.85;3.45;;;0.30;99.90;;;;;;4980608;28;20484;-35
2023/01/22 08:13:12;;;;;;;9.07;2.92;;;0.30;99.90;;;;;;4986898;28;20173;-35
2023/01/22 08:15:40;;;;;;;6.45;3.17;;;0.30;99.90;;;;;;4987706;28;20046;-34
2023/01/22 08:18:06;;;;;;;10.63;3.90;;;0.30;99.90;;;;;;4986351;28;20049;-34
2023/01/22 08:20:32;;;;;;;8.10;3.30;;;0.30;99.90;;;;;;4987316;28;20039;-35
2023/01/22 08:22:59;;;;;;;6.28;2.63;;;0.30;99.90;;;;;;4991604;28;20080;-35
2023/01/22 08:25:28;;;;;;;5.63;2.80;;;0.30;99.90;;;;;;4988946;28;20838;-34
2023/01/22 08:27:54;;;;;;;9.68;3.40;;;0.30;99.90;;;;;;4990499;28;20050;-34
2023/01/22 08:30:20;;;;;;;10.85;3.78;;;0.30;99.90;;;;;;4991214;28;20096;-34
2023/01/22 08:32:46;;;;;;;5.53;2.85;;;0.40;99.90;;;;;;4990757;28;20492;-34
2023/01/22 08:35:12;;;;;;;6.50;3.42;;;0.40;99.90;;;;;;4986972;28;20257;-36
2023/01/22 08:37:38;;;;;;;5.97;2.80;;;0.40;99.90;;;;;;4991433;28;20059;-35
2023/01/22 08:40:05;;;;;;;7.65;3.78;;;0.40;99.90;;;;;;4990657;28;20041;-35
2023/01/22 08:42:31;;;;;;;7.05;3.00;;;0.40;99.90;;;;;;4992737;28;20121;-34
2023/01/22 08:44:57;;;;;;;7.50;3.25;;;0.40;99.90;;;;;;4988765;28;20042;-35
2023/01/22 08:47:23;;;;;;;8.68;3.30;;;0.40;99.90;;;;;;4989949;28;20612;-37
2023/01/22 08:49:49;;;;;;;9.25;2.83;;;0.40;99.90;;;;;;4990788;28;20038;-39
2023/01/22 08:52:15;;;;;;;10.07;3.20;;;0.50;99.90;;;;;;4989567;28;20518;-35
2023/01/22 08:54:41;;;;;;;9.15;3.08;;;0.50;99.90;;;;;;4990094;28;20488;-35
2023/01/22 08:57:07;;;;;;;7.47;3.42;;;0.50;99.90;;;;;;4989929;28;20407;-40
2023/01/22 08:59:33;;;;;;;9.32;3.85;;;0.50;99.90;;;;;;4990389;28;20049;-37
2023/01/22 09:01:59;;;;;;;7.40;3.08;;;0.60;99.90;;;;;;4988460;28;20030;-44
2023/01/22 09:04:26;;;;;;;11.65;3.92;;;0.60;99.90;;;;;;4987937;28;20038;-34
2023/01/22 09:06:51;;;;;;;6.18;2.85;;;0.60;99.90;;;;;;5001601;28;20511;-35
2023/01/22 09:09:17;;;;;;;7.43;3.25;;;0.70;99.90;;;;;;4989677;28;20088;-36
2023/01/22 09:11:44;;;;;;;9.40;3.53;;;0.70;99.90;;;;;;4989339;28;20060;-35
2023/01/22 09:14:10;;;;;;;8.70;4.10;;;0.70;99.90;;;;;;4997187;28;20061;-36
2023/01/22 09:16:36;;;;;;;7.95;3.88;;;0.80;99.90;;;;;;4986714;28;20038;-35
2023/01/22 09:19:02;;;;;;;9.02;4.18;;;0.80;99.90;;;;;;4994698;28;20046;-35
2023/01/22 09:21:28;;;;;;;7.85;3.67;;;0.80;99.90;;;;;;4985675;28;20125;-35
2023/01/22 09:23:54;;;;;;;6.30;3.35;;;0.80;99.90;;;;;;4958068;28;20490;-35
2023/01/22 09:26:20;;;;;;;9.95;4.00;;;0.80;99.90;;;;;;4985514;28;20034;-34
2023/01/22 09:28:46;;;;;;;8.43;3.78;;;0.80;99.90;;;;;;4990619;28;20189;-35
2023/01/22 09:31:12;;;;;;;9.00;4.00;;;0.90;99.90;;;;;;4990310;28;20042;-35
2023/01/22 09:33:38;;;;;;;8.90;3.80;;;0.90;99.90;;;;;;4989003;28;20129;-35
2023/01/22 09:36:14;;;;;;;7.70;3.90;;;0.90;99.90;;;;;;4989729;28;20622;-34
2023/01/22 09:38:41;;;;;;;9.57;4.30;;;0.90;99.90;;;;;;4986687;28;20108;-35
2023/01/22 09:41:25;;;;;;;8.10;3.70;;;0.90;99.90;;;;;;4987903;28;20074;-35
2023/01/22 09:43:53;;;;;;;8.40;3.83;;;0.90;99.90;;;;;;4989464;28;20045;-41
2023/01/22 09:46:32;;;;;;;8.85;4.00;;;0.90;99.90;;;;;;4986213;28;20484;-45
2023/01/22 09:49:13;;;;;;;6.00;3.28;;;1.00;99.90;;;;;;4989690;28;20043;-39
2023/01/22 09:51:39;;;;;;;7.82;3.88;;;1.00;99.90;;;;;;4985050;28;20519;-40
2023/01/22 09:54:07;;;;;;;7.85;3.85;;;1.00;99.90;;;;;;4989829;28;20038;-43
2023/01/22 09:56:42;;;;;;;11.27;4.15;;;1.00;99.90;;;;;;4987307;28;20117;-41
2023/01/22 09:59:17;;;;;;;7.35;3.55;;;1.10;99.90;;;;;;4987001;28;20472;-42
2023/01/22 10:01:47;;;;;;;10.38;3.90;;;1.10;99.90;;;;;;4987050;28;20038;-45
2023/01/22 10:04:30;;;;;;;6.70;3.38;;;1.10;99.90;;;;;;4985568;28;20359;-42
2023/01/22 10:06:59;;;;;;;6.55;3.47;;;1.10;99.90;;;;;;4986845;28;20050;-44
2023/01/22 10:09:29;;;;;;;7.78;4.10;;;1.20;99.90;;;;;;4989621;28;20185;-42
2023/01/22 10:11:57;;;;;;;7.43;3.15;;;1.20;99.90;;;;;;4989216;28;20466;-44
2023/01/22 10:14:28;;;;;;;9.50;3.33;;;1.20;99.90;;;;;;4987408;28;20042;-38
2023/01/22 10:16:55;;;;;;;6.30;3.17;;;1.30;99.90;;;;;;4987347;28;20457;-40
2023/01/22 10:19:26;;;;;;;7.10;3.30;;;1.30;99.90;;;;;;4987353;28;20488;-42
2023/01/22 10:22:01;;;;;;;7.75;3.78;;;1.30;99.90;;;;;;4988451;28;20137;-42
2023/01/22 10:24:28;;;;;;;7.70;3.60;;;1.30;99.90;;;;;;4989909;28;20041;-43
2023/01/22 10:26:55;;;;;;;10.10;3.88;;;1.40;99.90;;;;;;4982823;28;20054;-44
2023/01/22 10:29:30;;;;;;;6.72;3.55;;;1.40;99.90;;;;;;4983714;28;20526;-41
2023/01/22 10:32:26;;;;;;;6.78;3.70;;;1.40;99.90;;;;;;4964356;28;20096;-43
2023/01/22 10:35:15;;;;;;;7.68;3.22;;;1.40;99.90;;;;;;4985708;28;20483;-37
2023/01/22 10:37:51;;;;;;;6.13;2.85;;;1.40;99.90;;;;;;4983974;28;20507;-43
2023/01/22 10:40:34;;;;;;;7.97;3.83;;;1.40;99.90;;;;;;4987506;28;20042;-42
2023/01/22 10:43:15;;;;;;;6.43;3.42;;;1.40;99.90;;;;;;4992299;28;20356;-39
2023/01/22 10:45:58;;;;;;;6.03;3.28;;;1.50;99.90;;;;;;4971735;28;20045;-43
2023/01/22 10:48:24;;;;;;;6.90;3.40;;;1.50;99.90;;;;;;4986758;28;20540;-42
2023/01/22 10:51:11;;;;;;;6.60;3.40;;;1.60;99.90;;;;;;4968980;28;20042;-43
2023/01/22 10:53:43;;;;;;;10.57;3.42;;;1.60;99.90;;;;;;4984793;28;20102;-42
2023/01/22 10:56:10;;;;;;;8.35;3.47;;;1.60;99.90;;;;;;4988611;28;20411;-41
2023/01/22 10:58:38;;;;;;;6.63;3.53;;;1.60;99.90;;;;;;4987963;28;20061;-43
2023/01/22 11:01:25;;;;;;;8.38;3.33;;;1.60;99.90;;;;;;4983768;28;20129;-40
2023/01/22 11:03:51;;;;;;;6.63;3.17;;;1.70;99.90;;;;;;4985341;28;20080;-40
2023/01/22 11:06:25;;;;;;;7.72;3.13;;;1.70;99.90;;;;;;4968291;28;20046;-47
2023/01/22 11:08:58;;;;;;;6.65;3.33;;;1.70;99.90;;;;;;4986142;28;20263;-39
2023/01/22 11:11:31;;;;;;;7.50;3.30;;;1.80;99.90;;;;;;4967651;28;20061;-38
2023/01/22 11:14:24;;;;;;;6.18;2.72;;;1.80;99.90;;;;;;4984860;28;20062;-43
2023/01/22 11:16:53;;;;;;;6.63;3.08;;;1.80;99.90;;;;;;4980885;28;20065;-41
2023/01/22 11:19:23;;;;;;;6.10;3.20;;;1.80;99.90;;;;;;4986197;28;20045;-45
2023/01/22 11:21:52;;;;;;;8.27;3.35;;;1.80;99.90;;;;;;4969527;28;20492;-40
2023/01/22 11:24:35;;;;;;;9.50;3.03;;;1.90;99.90;;;;;;4987658;28;20538;-46
2023/01/22 11:27:34;;;;;;;8.68;3.53;;;1.90;99.90;;;;;;4979785;28;20071;-38
2023/01/22 11:30:08;;;;;;;6.75;3.22;;;1.90;99.90;;;;;;4984086;28;20038;-40
2023/01/22 11:32:52;;;;;;;9.95;3.60;;;1.90;99.90;;;;;;4978867;28;20042;-43
2023/01/22 11:35:45;;;;;;;9.52;3.35;;;1.90;99.90;;;;;;4980799;28;20129;-43
2023/01/22 11:38:16;;;;;;;9.03;4.03;;;1.90;99.90;;;;;;4956455;28;20049;-38
2023/01/22 11:41:07;;;;;;;7.57;3.38;;;1.90;99.90;;;;;;4961719;28;20129;-43
2023/01/22 11:44:21;;;;;;;6.80;3.30;;;1.90;99.90;;;;;;4948679;28;20067;-42
2023/01/22 11:47:13;;;;;;;6.55;3.33;;;1.90;99.90;;;;;;4905256;29;20051;-41
2023/01/22 11:49:57;;;;;;;7.80;3.60;;;2.00;99.90;;;;;;4965104;28;20039;-40
2023/01/22 11:52:29;;;;;;;7.00;3.50;;;2.00;99.90;;;;;;4963941;28;20506;-43
2023/01/22 11:55:20;;;;;;;7.68;3.10;;;2.00;99.90;;;;;;4948327;28;20105;-43
2023/01/22 11:58:19;;;;;;;8.55;3.53;;;2.00;99.90;;;;;;4967565;28;20047;-42
2023/01/22 12:00:51;;;;;;;9.18;3.88;;;2.00;99.90;;;;;;4971155;28;20039;-45
2023/01/22 12:03:40;;;;;;;7.00;3.80;;;2.00;99.90;;;;;;4971407;28;20567;-43
2023/01/22 12:06:22;;;;;;;10.07;4.32;;;2.00;99.90;;;;;;4970026;28;20093;-46
2023/01/22 12:09:26;;;;;;;10.32;3.95;;;2.10;99.90;;;;;;4966391;28;20072;-40
2023/01/22 12:12:13;;;;;;;6.82;3.72;;;2.10;99.90;;;;;;4948033;28;20092;-43
2023/01/22 12:14:46;;;;;;;7.30;3.70;;;2.10;99.90;;;;;;4965609;28;20702;-41
2023/01/22 12:17:33;;;;;;;7.18;3.33;;;2.20;99.90;;;;;;4953381;28;20045;-44
2023/01/22 12:20:23;;;;;;;5.82;3.30;;;2.20;99.90;;;;;;4966466;28;20058;-41
2023/01/22 12:23:12;;;;;;;8.35;4.00;;;2.20;99.90;;;;;;4996892;23;20718;-90
2023/01/22 12:26:05;;;;;;;7.50;3.75;;;2.30;99.90;;;;;;4990434;28;20057;-86
2023/01/22 12:28:56;;;;;;;8.65;3.78;;;2.20;99.90;;;;;;4986239;28;20050;-90
2023/01/22 12:31:42;;;;;;;9.70;3.97;;;2.20;99.90;;;;;;5050075;23;20490;-41
2023/01/22 12:34:35;;;;;;;8.05;3.85;;;2.30;99.90;;;;;;5026407;28;20061;-39
2023/01/22 12:37:02;;;;;;;8.65;3.75;;;2.40;99.90;;;;;;5022428;28;20049;-40
2023/01/22 12:39:40;;;;;;;10.73;4.03;;;2.40;99.90;;;;;;5024073;28;20099;-40
2023/01/22 12:42:47;;;;;;;8.13;3.67;;;2.50;99.90;;;;;;5025435;28;20045;-41
2023/01/22 12:45:34;;;;;;;7.80;3.60;;;2.40;99.90;;;;;;4946199;28;20473;-40
2023/01/22 12:48:15;;;;;;;6.57;3.15;;;2.40;99.90;;;;;;4937659;28;21134;-38
2023/01/22 12:50:57;;;;;;;7.00;3.80;;;2.40;99.90;;;;;;4979136;28;20073;-39
2023/01/22 12:53:26;;;;;;;7.43;3.63;;;2.40;99.90;;;;;;5025535;28;20092;-42
2023/01/22 12:56:03;;;;;;;9.18;3.70;;;2.50;99.90;;;;;;5022345;28;20371;-41
2023/01/22 12:58:32;;;;;;;9.40;3.90;;;2.60;99.90;;;;;;5026089;28;20038;-38
2023/01/22 13:01:04;;;;;;;6.97;2.97;;;2.60;99.90;;;;;;5025666;28;20048;-39
2023/01/22 13:03:31;;;;;;;8.48;3.40;;;2.70;99.90;;;;;;5010667;28;20041;-39
2023/01/22 13:05:58;;;;;;;9.27;4.05;;;2.80;99.90;;;;;;5025299;28;20033;-40
2023/01/22 13:08:39;;;;;;;8.80;3.85;;;2.80;99.90;;;;;;5026745;28;20055;-41
2023/01/22 13:11:13;;;;;;;7.68;3.10;;;2.70;99.90;;;;;;5026096;28;20049;-39